TNCM/SXM METAR and TAF weather

Enter ICAO airport designator
Station Type Date Time Source
TNCM METAR 2019/08/21 22:00 UTC NOAA

TNCM 212200Z 06008KT 9999 FEW020 29/23 Q1015 A2998 NOSIG


Station Type Date Time Source
TNCM Decoded METAR 2019/08/21 22:00 UTC NOAA

Station name not available
Aug 21, 2019 - 06:00 PM EDT / 2019.08.21 2200 UTC
Wind: from the ENE (060 degrees) at 9 MPH (8 KT):0
Visibility: greater than 7 mile(s):0
Sky conditions: mostly clear
Temperature: 84 F (29 C)
Dew Point: 73 F (23 C)
Relative Humidity: 70%
Pressure (altimeter): 29.98 in. Hg (1015 hPa)
ob: TNCM 212200Z 06008KT 9999 FEW020 29/23 Q1015 A2998 NOSIG
cycle: 22

Station Type Date Time Source
TNCM TAF 2019/08/21 18:54 UTC NOAA

TAF TNCM 211751Z 2118/2218 06012KT P6SM VCSH FEW020
FM212300 08008KT P6SM VCSH SCT020 SCT035
FM221400 12012KT P6SM FEW020 SCT050

Example: see airport list